Time;durP1;ratioP1;P1;durP2;ratioP2;P2;SDS_P1;SDS_P2;PMS_P1;PMS_P2;Temp;Humidity;BMP_temperature;BMP_pressure;BME280_temperature;BME280_humidity;BME280_pressure;Samples;Min_cycle;Max_cycle;Signal;HPM_P1;HPM_P2
2023/04/04 00:00:24;;;;;;;3.60;1.97;;;;;;;0.22;100.00;102791.38;4960194;28;20098;-73
2023/04/04 00:02:49;;;;;;;3.37;1.97;;;;;;;0.18;100.00;102804.56;4977192;28;20547;-74
2023/04/04 00:05:15;;;;;;;4.53;2.17;;;;;;;0.16;100.00;102796.75;4967752;28;20542;-73
2023/04/04 00:07:40;;;;;;;4.33;2.40;;;;;;;0.17;100.00;102798.56;4976893;28;20022;-73
2023/04/04 00:10:06;;;;;;;5.07;2.30;;;;;;;0.16;100.00;102801.88;4963118;28;20431;-74
2023/04/04 00:12:31;;;;;;;6.37;2.20;;;;;;;0.16;100.00;102806.97;4983676;28;20030;-73
2023/04/04 00:14:57;;;;;;;4.10;1.97;;;;;;;0.17;100.00;102806.22;4981807;28;20043;-73
2023/04/04 00:17:22;;;;;;;6.33;2.47;;;;;;;0.15;100.00;102811.88;4988263;28;20393;-73
2023/04/04 00:19:47;;;;;;;4.43;2.30;;;;;;;0.12;100.00;102809.91;4986011;28;20035;-71
2023/04/04 00:22:13;;;;;;;3.73;2.40;;;;;;;0.12;100.00;102809.91;4983796;28;20069;-73
2023/04/04 00:24:38;;;;;;;3.97;2.20;;;;;;;0.10;100.00;102806.28;4986658;28;20018;-74
2023/04/04 00:27:04;;;;;;;3.90;2.50;;;;;;;0.08;100.00;102810.31;4983226;28;20017;-73
2023/04/04 00:29:29;;;;;;;4.33;2.70;;;;;;;0.04;100.00;102805.63;4986058;28;20607;-73
2023/04/04 00:31:54;;;;;;;3.17;2.10;;;;;;;0.02;100.00;102812.22;4977874;28;20023;-73
2023/04/04 00:34:20;;;;;;;4.90;2.20;;;;;;;-0.02;100.00;102806.78;4984366;28;20475;-73
2023/04/04 00:36:46;;;;;;;4.87;2.37;;;;;;;-0.04;100.00;102813.38;4979671;28;20030;-73
2023/04/04 00:39:11;;;;;;;2.57;2.13;;;;;;;-0.07;100.00;102815.59;4982215;28;20068;-73
2023/04/04 00:41:38;;;;;;;4.23;2.43;;;;;;;-0.11;100.00;102810.91;4972855;28;20384;-73
2023/04/04 00:44:04;;;;;;;4.00;2.37;;;;;;;-0.12;100.00;102809.09;4982945;28;20022;-72
2023/04/04 00:46:29;;;;;;;2.83;2.00;;;;;;;-0.11;100.00;102804.91;4978485;28;20026;-72
2023/04/04 00:48:55;;;;;;;5.40;2.20;;;;;;;-0.14;100.00;102816.59;4968833;28;20320;-73
2023/04/04 00:51:20;;;;;;;4.47;2.33;;;;;;;-0.12;100.00;102814.19;4965558;28;20059;-72
2023/04/04 00:53:47;;;;;;;3.50;2.10;;;;;;;-0.14;100.00;102815.66;4962182;28;20106;-72
2023/04/04 00:56:13;;;;;;;4.30;2.20;;;;;;;-0.14;100.00;102815.66;4975048;28;20511;-74
2023/04/04 00:58:39;;;;;;;3.60;2.43;;;;;;;-0.14;100.00;102805.47;4960958;28;20023;-72
2023/04/04 01:01:05;;;;;;;4.23;1.90;;;;;;;-0.15;100.00;102808.78;4973536;28;20026;-73
2023/04/04 01:03:31;;;;;;;3.57;2.47;;;;;;;-0.16;100.00;102818.06;4973021;28;20487;-72
2023/04/04 01:05:57;;;;;;;5.50;2.40;;;;;;;-0.15;100.00;102808.78;4965964;28;20026;-70
2023/04/04 01:08:25;;;;;;;3.43;1.87;;;;;;;-0.17;100.00;102811.16;4959203;28;20106;-73
2023/04/04 01:10:51;;;;;;;2.97;2.07;;;;;;;-0.18;100.00;102816.09;4973905;28;20026;-72
2023/04/04 01:13:16;;;;;;;3.23;2.20;;;;;;;-0.20;100.00;102813.38;4958814;28;20482;-72
2023/04/04 01:15:42;;;;;;;4.50;2.27;;;;;;;-0.20;100.00;102809.94;4973181;28;20027;-72
2023/04/04 01:18:10;;;;;;;4.10;1.93;;;;;;;-0.20;100.00;102809.94;4966499;28;20023;-72
2023/04/04 01:20:43;;;;;;;4.77;2.40;;;;;;;-0.24;100.00;102798.50;4973804;28;20035;-73
2023/04/04 01:23:09;;;;;;;4.17;2.30;;;;;;;-0.29;100.00;102795.44;4970533;28;20274;-72
2023/04/04 01:25:34;;;;;;;4.37;2.20;;;;;;;-0.32;100.00;102787.47;4966226;28;20829;-72
2023/04/04 01:28:00;;;;;;;3.37;2.37;;;;;;;-0.35;100.00;102789.69;4973082;28;20025;-72
2023/04/04 01:30:32;;;;;;;4.40;2.13;;;;;;;-0.39;100.00;102782.44;4964788;28;20030;-72
2023/04/04 01:33:03;;;;;;;5.37;2.13;;;;;;;-0.41;100.00;102778.81;4965547;28;20062;-71
2023/04/04 01:35:49;;;;;;;4.50;2.40;;;;;;;-0.43;100.00;102781.19;4972316;28;20387;-72
2023/04/04 01:38:17;;;;;;;3.03;2.03;;;;;;;-0.45;100.00;102784.34;4966132;28;20028;-72
2023/04/04 01:40:54;;;;;;;3.20;2.23;;;;;;;-0.50;100.00;102784.75;4964899;28;20092;-73
2023/04/04 01:43:19;;;;;;;5.40;1.93;;;;;;;-0.52;100.00;102778.56;4966951;28;20019;-73
2023/04/04 01:45:45;;;;;;;3.53;2.40;;;;;;;-0.59;100.00;102773.53;4978815;28;20486;-73
2023/04/04 01:48:10;;;;;;;4.77;2.20;;;;;;;-0.63;100.00;102776.53;4983888;28;20025;-73
2023/04/04 01:50:36;;;;;;;2.53;2.00;;;;;;;-0.66;100.00;102776.16;4989426;28;20045;-72
2023/04/04 01:53:01;;;;;;;3.90;2.37;;;;;;;-0.68;100.00;102778.53;4955842;28;20263;-73
2023/04/04 01:55:26;;;;;;;4.77;2.67;;;;;;;-0.71;100.00;102777.31;4953977;28;20420;-73
2023/04/04 01:57:52;;;;;;;4.43;2.40;;;;;;;-0.73;100.00;102779.69;4961238;28;20033;-73
2023/04/04 02:00:18;;;;;;;7.23;2.30;;;;;;;-0.76;100.00;102784.44;4972789;28;20026;-72
2023/04/04 02:02:43;;;;;;;3.40;2.43;;;;;;;-0.78;100.00;102779.19;4966331;28;20440;-74
2023/04/04 02:05:09;;;;;;;4.07;2.37;;;;;;;-0.80;100.00;102778.13;4958862;28;20027;-73
2023/04/04 02:07:34;;;;;;;7.40;2.97;;;;;;;-0.80;100.00;102773.03;4969351;28;20167;-73
2023/04/04 02:10:00;;;;;;;4.03;2.50;;;;;;;-0.85;100.00;102776.72;4977288;28;20384;-73
2023/04/04 02:12:25;;;;;;;5.33;2.73;;;;;;;-0.89;100.00;102775.47;4975644;28;20030;-73
2023/04/04 02:14:51;;;;;;;4.07;2.33;;;;;;;-0.91;100.00;102778.56;4958593;28;20459;-72
2023/04/04 02:17:17;;;;;;;2.60;2.20;;;;;;;-0.93;100.00;102780.94;4968673;28;20023;-72
2023/04/04 02:19:42;;;;;;;5.80;2.70;;;;;;;-0.97;100.00;102782.25;4958811;28;20516;-71
2023/04/04 02:22:07;;;;;;;3.50;2.27;;;;;;;-0.99;100.00;102781.16;4962244;28;20074;-73
2023/04/04 02:24:33;;;;;;;3.53;2.27;;;;;;;-1.01;100.00;102784.31;4969802;28;20030;-73
2023/04/04 02:26:58;;;;;;;4.87;2.40;;;;;;;-1.03;100.00;102783.22;4962771;28;20393;-72
2023/04/04 02:29:23;;;;;;;5.93;2.23;;;;;;;-1.05;100.00;102789.78;4965569;28;20030;-72
2023/04/04 02:31:49;;;;;;;4.70;2.20;;;;;;;-1.05;100.00;102785.59;4960649;28;20035;-72
2023/04/04 02:34:14;;;;;;;3.37;2.37;;;;;;;-1.05;100.00;102784.69;4968193;28;20590;-72
2023/04/04 02:36:39;;;;;;;3.70;2.27;;;;;;;-1.04;100.00;102792.50;4970669;28;20445;-73
2023/04/04 02:39:04;;;;;;;2.97;2.10;;;;;;;-1.03;100.00;102789.22;4972075;28;20026;-72
2023/04/04 02:41:30;;;;;;;3.20;2.20;;;;;;;-1.02;100.00;102791.03;4970647;28;20038;-73
2023/04/04 02:43:55;;;;;;;4.77;2.00;;;;;;;-1.03;100.00;102798.50;4979341;28;20030;-72
2023/04/04 02:46:20;;;;;;;2.70;2.00;;;;;;;-1.06;100.00;102793.06;4957927;28;20031;-72
2023/04/04 02:48:46;;;;;;;5.63;2.23;;;;;;;-1.08;100.00;102795.44;4951233;28;20079;-72
2023/04/04 02:51:11;;;;;;;3.40;2.47;;;;;;;-1.09;100.00;102788.53;4975777;28;20026;-72
2023/04/04 02:53:36;;;;;;;4.27;2.47;;;;;;;-1.14;100.00;102789.66;4984975;28;20035;-73
2023/04/04 02:56:02;;;;;;;4.60;2.23;;;;;;;-1.17;100.00;102779.16;4981743;28;20030;-73
2023/04/04 02:58:28;;;;;;;3.57;2.20;;;;;;;-1.19;100.00;102781.53;4978610;28;20113;-72
2023/04/04 03:00:54;;;;;;;5.43;2.50;;;;;;;-1.17;100.00;102779.16;4977567;28;20421;-71
2023/04/04 03:03:20;;;;;;;3.43;2.63;;;;;;;-1.17;100.00;102779.16;4972095;28;20039;-72
2023/04/04 03:05:45;;;;;;;5.37;2.00;;;;;;;-1.18;100.00;102777.31;4977585;28;20568;-73
2023/04/04 03:08:11;;;;;;;6.40;2.50;;;;;;;-1.21;100.00;102771.16;4961818;28;20027;-72
2023/04/04 03:10:36;;;;;;;6.30;2.47;;;;;;;-1.22;100.00;102776.06;4971522;28;20060;-72
2023/04/04 03:13:01;;;;;;;3.40;2.50;;;;;;;-1.21;100.00;102776.25;4968499;28;20314;-71
2023/04/04 03:15:26;;;;;;;2.53;2.00;;;;;;;-1.19;100.00;102775.53;4966083;28;20051;-72
2023/04/04 03:17:52;;;;;;;5.93;2.50;;;;;;;-1.21;100.00;102777.91;4965822;28;20023;-72
2023/04/04 03:20:18;;;;;;;4.10;2.50;;;;;;;-1.24;100.00;102777.56;4955626;28;20737;-71
2023/04/04 03:22:43;;;;;;;4.00;2.20;;;;;;;-1.24;100.00;102778.44;4962042;28;20045;-72
2023/04/04 03:25:09;;;;;;;3.07;2.20;;;;;;;-1.22;100.00;102783.72;4958307;28;20031;-72
2023/04/04 03:27:34;;;;;;;2.73;2.10;;;;;;;-1.20;100.00;102782.25;4967725;28;20030;-70
2023/04/04 03:30:00;;;;;;;3.40;2.30;;;;;;;-1.25;100.00;102783.38;4961533;28;20498;-73
2023/04/04 03:32:26;;;;;;;3.50;2.57;;;;;;;-1.26;100.00;102779.91;4960104;28;20050;-72
2023/04/04 03:34:51;;;;;;;3.60;2.47;;;;;;;-1.29;100.00;102774.50;4977000;28;20415;-72
2023/04/04 03:37:17;;;;;;;3.37;2.40;;;;;;;-1.33;100.00;102778.34;4964685;28;20031;-72
2023/04/04 03:39:42;;;;;;;4.40;2.23;;;;;;;-1.36;100.00;102775.47;4961213;28;20030;-71
2023/04/04 03:42:07;;;;;;;4.10;2.50;;;;;;;-1.38;100.00;102768.38;4964365;28;20027;-72
2023/04/04 03:44:33;;;;;;;3.50;2.33;;;;;;;-1.41;100.00;102763.88;4950602;28;20031;-71
2023/04/04 03:46:58;;;;;;;4.73;2.70;;;;;;;-1.42;100.00;102771.34;4963545;28;20080;-71
2023/04/04 03:49:24;;;;;;;4.43;2.67;;;;;;;-1.44;100.00;102758.44;4987926;28;20026;-70
2023/04/04 03:51:49;;;;;;;5.30;2.87;;;;;;;-1.46;100.00;102757.38;4988396;28;20061;-71
2023/04/04 03:54:14;;;;;;;4.93;2.80;;;;;;;-1.48;100.00;102758.81;4988868;28;20027;-72
2023/04/04 03:56:40;;;;;;;5.00;2.57;;;;;;;-1.50;100.00;102753.56;4982425;28;20360;-72
2023/04/04 03:59:05;;;;;;;4.37;2.23;;;;;;;-1.51;100.00;102758.50;4968952;28;20474;-72
2023/04/04 04:01:31;;;;;;;9.80;2.63;;;;;;;-1.51;100.00;102754.28;4964769;28;20030;-73
2023/04/04 04:03:56;;;;;;;4.57;3.10;;;;;;;-1.52;100.00;102751.56;4952358;28;20098;-71
2023/04/04 04:06:22;;;;;;;4.40;2.40;;;;;;;-1.55;100.00;102748.69;4958334;28;20011;-72
2023/04/04 04:08:47;;;;;;;3.67;2.40;;;;;;;-1.57;100.00;102761.25;4961347;28;20039;-72
2023/04/04 04:11:12;;;;;;;4.37;2.37;;;;;;;-1.58;100.00;102754.34;4967686;28;20031;-71
2023/04/04 04:13:38;;;;;;;5.10;2.73;;;;;;;-1.62;100.00;102762.38;4954846;28;20503;-71
2023/04/04 04:16:04;;;;;;;2.87;2.20;;;;;;;-1.65;100.00;102762.00;4968706;28;20447;-71
2023/04/04 04:18:30;;;;;;;6.90;3.03;;;;;;;-1.68;100.00;102757.50;4988120;28;20041;-72
2023/04/04 04:21:00;;;;;;;4.70;2.83;;;;;;;-1.68;100.00;102760.03;4959929;28;20031;-71
2023/04/04 04:23:26;;;;;;;4.80;2.75;;;;;;;-1.70;100.00;102762.41;4979962;28;20529;-72
2023/04/04 04:25:51;;;;;;;4.10;2.70;;;;;;;-1.71;100.00;102747.88;4985290;28;20030;-72
2023/04/04 04:28:17;;;;;;;4.87;2.93;;;;;;;-1.71;100.00;102752.06;4972327;28;20109;-71
2023/04/04 04:30:43;;;;;;;3.90;2.73;;;;;;;-1.76;100.00;102748.97;4950974;28;20098;-71
2023/04/04 04:33:08;;;;;;;3.83;2.77;;;;;;;-1.79;100.00;102753.72;4986903;28;20025;-72
2023/04/04 04:35:38;;;;;;;4.50;2.93;;;;;;;-1.79;100.00;102748.66;4973270;28;20035;-71
2023/04/04 04:38:03;;;;;;;4.77;2.90;;;;;;;-1.77;100.00;102756.44;4984685;28;20022;-71
2023/04/04 04:40:29;;;;;;;4.97;2.77;;;;;;;-1.77;100.00;102756.44;4972088;28;20023;-72
2023/04/04 04:42:54;;;;;;;4.37;2.40;;;;;;;-1.79;100.00;102752.81;4968412;28;20058;-72
2023/04/04 04:45:20;;;;;;;4.53;3.00;;;;;;;-1.80;100.00;102759.56;4968885;28;20480;-72
2023/04/04 04:47:45;;;;;;;5.30;3.20;;;;;;;-1.82;100.00;102753.41;4971550;28;20022;-72
2023/04/04 04:50:11;;;;;;;6.07;2.80;;;;;;;-1.86;100.00;102756.31;4979709;28;20030;-71
2023/04/04 04:52:37;;;;;;;4.53;2.67;;;;;;;-1.90;100.00;102749.06;4975206;28;20171;-71
2023/04/04 04:55:03;;;;;;;5.90;3.23;;;;;;;-1.88;100.00;102762.84;4984771;28;20095;-72
2023/04/04 04:57:29;;;;;;;3.83;2.50;;;;;;;-1.85;100.00;102764.09;4978844;28;20276;-72
2023/04/04 04:59:54;;;;;;;4.73;2.73;;;;;;;-1.86;100.00;102769.03;4981743;28;20025;-70
2023/04/04 05:02:19;;;;;;;4.00;2.73;;;;;;;-1.87;100.00;102770.66;4966990;28;20023;-71
2023/04/04 05:04:45;;;;;;;4.00;2.63;;;;;;;-1.85;100.00;102781.00;4967156;28;20035;-71
2023/04/04 05:07:11;;;;;;;6.83;2.90;;;;;;;-1.85;100.00;102775.91;4968177;28;20383;-72
2023/04/04 05:09:36;;;;;;;4.23;2.90;;;;;;;-1.83;100.00;102777.91;4972990;28;20374;-72
2023/04/04 05:12:02;;;;;;;4.33;2.57;;;;;;;-1.83;100.00;102780.44;4965746;28;20030;-72
2023/04/04 05:14:30;;;;;;;3.60;2.77;;;;;;;-1.80;100.00;102787.53;4972033;28;20082;-72
2023/04/04 05:16:56;;;;;;;5.17;3.37;;;;;;;-1.81;100.00;102790.78;4971730;28;20030;-72
2023/04/04 05:19:21;;;;;;;3.27;2.50;;;;;;;-1.83;100.00;102782.97;4975357;28;20119;-73
2023/04/04 05:21:46;;;;;;;4.80;2.90;;;;;;;-1.83;100.00;102782.06;4964201;28;20512;-71
2023/04/04 05:24:12;;;;;;;5.77;2.50;;;;;;;-1.85;100.00;102784.44;4973796;28;20109;-72
2023/04/04 05:26:38;;;;;;;3.63;2.87;;;;;;;-1.86;100.00;102777.56;4968436;28;20371;-72
2023/04/04 05:29:03;;;;;;;6.13;3.23;;;;;;;-1.88;100.00;102788.28;4960178;28;20487;-71
2023/04/04 05:31:28;;;;;;;4.23;2.97;;;;;;;-1.89;100.00;102779.72;4967028;28;20329;-72
2023/04/04 05:33:55;;;;;;;4.43;3.13;;;;;;;-1.88;100.00;102780.66;4965517;28;20398;-72
2023/04/04 05:36:20;;;;;;;3.83;2.77;;;;;;;-1.90;100.00;102779.56;4968412;28;20034;-72
2023/04/04 05:38:45;;;;;;;4.90;2.90;;;;;;;-1.89;100.00;102781.38;4974081;28;20477;-71
2023/04/04 05:41:11;;;;;;;5.80;3.13;;;;;;;-1.88;100.00;102783.19;4970708;28;20038;-71
2023/04/04 05:43:36;;;;;;;5.43;3.40;;;;;;;-1.87;100.00;102787.56;4976841;28;20430;-71
2023/04/04 05:46:01;;;;;;;5.77;3.47;;;;;;;-1.84;100.00;102788.81;4973676;28;20023;-71
2023/04/04 05:48:26;;;;;;;5.33;3.53;;;;;;;-1.77;100.00;102790.41;4979220;28;20034;-71
2023/04/04 05:50:52;;;;;;;5.03;3.30;;;;;;;-1.70;100.00;102789.47;4977412;28;20022;-72
2023/04/04 05:53:17;;;;;;;3.97;3.07;;;;;;;-1.64;100.00;102790.19;4971157;28;20030;-71
2023/04/04 05:55:43;;;;;;;6.20;3.20;;;;;;;-1.57;100.00;102801.94;4960844;28;20031;-72
2023/04/04 05:58:08;;;;;;;3.47;3.17;;;;;;;-1.52;100.00;102805.91;4964240;28;20022;-72
2023/04/04 06:00:33;;;;;;;4.77;3.17;;;;;;;-1.45;100.00;102804.94;4964823;28;20543;-70
2023/04/04 06:02:58;;;;;;;4.87;3.43;;;;;;;-1.40;100.00;102801.28;4964386;28;20030;-72
2023/04/04 06:05:24;;;;;;;4.70;3.60;;;;;;;-1.33;100.00;102802.88;4969400;28;20027;-71
2023/04/04 06:07:49;;;;;;;4.03;3.40;;;;;;;-1.28;100.00;102804.31;4964211;28;20385;-71
2023/04/04 06:10:15;;;;;;;5.33;3.40;;;;;;;-1.23;100.00;102800.66;4966184;28;20030;-71
2023/04/04 06:12:40;;;;;;;6.57;4.37;;;;;;;-1.13;100.00;102801.66;4963188;28;20081;-72
2023/04/04 06:15:06;;;;;;;6.63;4.33;;;;;;;-1.03;100.00;102804.50;4957172;28;20047;-72
2023/04/04 06:17:32;;;;;;;6.10;4.43;;;;;;;-0.92;100.00;102807.31;4962280;28;20023;-71
2023/04/04 06:19:57;;;;;;;7.43;3.83;;;;;;;-0.79;100.00;102802.84;4968491;28;20042;-72
2023/04/04 06:22:22;;;;;;;8.00;4.73;;;;;;;-0.59;100.00;102803.22;4961635;28;20052;-70
2023/04/04 06:24:48;;;;;;;8.10;5.23;;;;;;;-0.41;100.00;102809.38;4967316;28;20026;-73
2023/04/04 06:27:13;;;;;;;8.50;4.87;;;;;;;-0.26;100.00;102805.06;4959642;28;20029;-72
2023/04/04 06:29:39;;;;;;;6.03;4.47;;;;;;;-0.06;100.00;102803.75;4968704;28;20026;-72
2023/04/04 06:32:04;;;;;;;6.90;5.07;;;;;;;0.18;100.00;102814.78;4972699;28;20086;-72
2023/04/04 06:34:30;;;;;;;6.57;4.70;;;;;;;0.44;100.00;102817.53;4966383;28;20153;-72
2023/04/04 06:36:55;;;;;;;6.37;4.00;;;;;;;0.69;100.00;102826.81;4972683;28;20401;-72
2023/04/04 06:39:20;;;;;;;5.77;4.30;;;;;;;0.93;100.00;102818.28;4966874;28;20464;-72
2023/04/04 06:41:46;;;;;;;6.93;3.87;;;;;;;1.17;100.00;102816.41;4969490;28;20027;-72
2023/04/04 06:44:12;;;;;;;7.23;4.27;;;;;;;1.43;100.00;102815.63;4958142;28;20026;-71
2023/04/04 06:46:38;;;;;;;6.50;4.03;;;;;;;1.74;100.00;102815.25;4967288;28;20033;-71
2023/04/04 06:49:03;;;;;;;4.77;3.60;;;;;;;2.00;97.30;102808.34;4973192;28;20040;-72
2023/04/04 06:51:29;;;;;;;5.23;3.53;;;;;;;2.14;92.29;102812.28;4969818;28;20086;-73
2023/04/04 06:53:55;;;;;;;6.73;4.07;;;;;;;2.46;94.43;102822.19;4953704;28;20050;-73
2023/04/04 06:56:21;;;;;;;7.17;4.13;;;;;;;2.73;91.30;102823.06;4983510;28;20355;-73
2023/04/04 06:58:47;;;;;;;6.27;3.87;;;;;;;3.09;90.28;102823.88;4980011;28;20034;-72
2023/04/04 07:01:13;;;;;;;7.13;3.67;;;;;;;3.44;86.79;102819.31;4985029;28;20030;-73
2023/04/04 07:03:38;;;;;;;6.57;4.17;;;;;;;3.92;85.30;102822.81;4970910;28;20846;-73
2023/04/04 07:06:04;;;;;;;5.53;3.60;;;;;;;4.42;83.46;102824.66;4957164;28;20027;-73
2023/04/04 07:08:30;;;;;;;5.15;3.67;;;;;;;4.78;77.81;102823.56;4963712;28;20050;-72
2023/04/04 07:10:55;;;;;;;4.90;3.60;;;;;;;5.20;79.46;102828.81;4978057;28;20026;-73
2023/04/04 07:13:22;;;;;;;6.18;3.50;;;;;;;5.57;76.65;102825.00;4952618;28;20019;-72
2023/04/04 07:15:48;;;;;;;6.25;3.25;;;;;;;5.52;70.71;102822.06;4952165;28;20415;-73
2023/04/04 07:18:14;;;;;;;5.47;3.10;;;;;;;5.84;70.74;102821.28;4953966;28;20022;-73
2023/04/04 07:20:39;;;;;;;6.50;3.55;;;;;;;6.01;65.98;102825.25;4952190;28;20110;-73
2023/04/04 07:23:05;;;;;;;7.32;3.50;;;;;;;6.32;67.99;102824.31;4969165;28;20018;-73
2023/04/04 07:25:30;;;;;;;5.43;3.17;;;;;;;6.68;66.42;102824.59;4953767;28;20082;-73
2023/04/04 07:27:55;;;;;;;4.18;3.33;;;;;;;6.92;62.62;102821.28;4960110;28;20030;-73
2023/04/04 07:30:25;;;;;;;5.22;3.20;;;;;;;7.28;63.54;102816.28;4964921;28;20037;-74
2023/04/04 07:32:56;;;;;;;5.65;3.92;;;;;;;7.60;61.17;102814.38;4977952;28;20018;-73
2023/04/04 07:35:22;;;;;;;6.07;3.55;;;;;;;7.69;60.11;102809.91;4959401;28;20023;-74
2023/04/04 07:37:47;;;;;;;6.28;3.28;;;;;;;8.13;59.23;102818.28;4982110;28;20370;-74
2023/04/04 07:40:12;;;;;;;5.53;3.17;;;;;;;8.49;57.67;102815.72;4960329;28;20073;-73
2023/04/04 07:42:45;;;;;;;3.80;3.28;;;;;;;8.80;57.17;102812.75;4975275;28;20045;-74
2023/04/04 07:45:14;;;;;;;4.57;3.08;;;;;;;9.05;55.76;102811.88;4960650;28;20024;-73
2023/04/04 07:47:43;;;;;;;5.55;3.17;;;;;;;9.30;53.31;102808.41;4971538;28;20057;-73
2023/04/04 07:50:10;;;;;;;4.70;3.70;;;;;;;9.51;54.39;102802.94;4962511;28;20034;-71
2023/04/04 07:52:36;;;;;;;5.30;3.53;;;;;;;9.59;52.84;102806.91;4967944;28;20419;-74
2023/04/04 07:55:02;;;;;;;6.10;3.00;;;;;;;9.76;51.91;102804.56;4968187;28;20452;-74
2023/04/04 07:57:28;;;;;;;4.10;3.65;;;;;;;9.81;50.77;102810.97;4970763;28;20018;-73
2023/04/04 07:59:53;;;;;;;4.25;3.17;;;;;;;9.34;50.56;102810.44;4971045;28;20027;-74
2023/04/04 08:02:18;;;;;;;3.35;2.88;;;;;;;9.58;52.04;102810.31;4971247;28;20209;-73
2023/04/04 08:04:43;;;;;;;4.85;2.80;;;;;;;8.98;50.53;102814.84;4979264;28;20023;-71
2023/04/04 08:07:09;;;;;;;3.50;2.78;;;;;;;9.27;51.17;102813.38;4979042;28;20038;-73
2023/04/04 08:09:35;;;;;;;6.03;3.20;;;;;;;9.51;50.53;102821.03;4968815;28;20395;-73
2023/04/04 08:12:01;;;;;;;4.25;3.20;;;;;;;9.33;49.87;102820.69;4969431;28;20471;-73
2023/04/04 08:14:27;;;;;;;4.13;2.78;;;;;;;9.43;49.91;102817.91;4975063;28;20958;-73
2023/04/04 08:16:52;;;;;;;8.30;3.22;;;;;;;9.68;51.25;102817.00;4971054;28;20025;-74
2023/04/04 08:19:18;;;;;;;3.75;3.20;;;;;;;9.99;49.80;102818.16;4980086;28;20424;-73
2023/04/04 08:21:44;;;;;;;4.28;2.60;;;;;;;10.20;48.35;102820.34;4968347;28;20022;-74
2023/04/04 08:24:10;;;;;;;5.82;2.47;;;;;;;10.39;48.62;102826.75;4982027;28;20023;-74
2023/04/04 08:26:35;;;;;;;3.95;1.90;;;;;;;10.55;48.44;102821.78;4977908;28;20123;-71
2023/04/04 08:29:01;;;;;;;3.58;2.42;;;;;;;10.73;46.71;102823.75;4987237;28;20109;-72
2023/04/04 08:31:27;;;;;;;3.25;2.30;;;;;;;10.71;44.42;102820.16;4985469;28;20023;-73
2023/04/04 08:33:52;;;;;;;4.78;2.42;;;;;;;10.86;44.25;102821.91;4976122;28;20460;-74
2023/04/04 08:36:18;;;;;;;5.38;2.00;;;;;;;10.83;44.27;102821.75;4956815;28;20037;-74
2023/04/04 08:38:43;;;;;;;4.75;2.33;;;;;;;10.63;43.51;102814.47;4973441;28;20023;-72
2023/04/04 08:41:11;;;;;;;2.40;1.58;;;;;;;10.41;39.90;102807.00;4985498;28;20105;-72
2023/04/04 08:43:39;;;;;;;3.20;1.67;;;;;;;10.43;41.63;102815.78;4960476;28;20054;-75
2023/04/04 08:46:08;;;;;;;2.17;1.42;;;;;;;10.56;42.13;102804.50;4983218;28;20022;-75
2023/04/04 08:48:34;;;;;;;2.90;2.03;;;;;;;10.47;41.10;102812.56;4987283;28;20018;-75
2023/04/04 08:51:03;;;;;;;3.55;1.85;;;;;;;10.43;39.88;102805.41;4984344;28;20030;-75
2023/04/04 08:53:29;;;;;;;2.65;1.92;;;;;;;10.40;41.24;102800.91;4989158;28;20521;-74
2023/04/04 08:55:58;;;;;;;2.95;1.55;;;;;;;10.53;41.12;102805.22;4984835;28;20026;-75
2023/04/04 08:58:24;;;;;;;3.58;1.95;;;;;;;10.62;40.51;102804.91;4980172;28;20336;-75
2023/04/04 09:00:52;;;;;;;4.68;1.60;;;;;;;10.10;39.78;102798.13;4981691;28;20081;-75
2023/04/04 09:03:25;;;;;;;3.75;1.80;;;;;;;9.88;40.54;102799.31;4973499;28;20024;-74
2023/04/04 09:05:52;;;;;;;2.00;1.55;;;;;;;9.57;40.76;102794.69;4984480;28;20045;-74
2023/04/04 09:08:18;;;;;;;2.40;1.60;;;;;;;9.92;41.40;102801.31;4952848;28;20017;-74
2023/04/04 09:10:44;;;;;;;3.40;1.42;;;;;;;10.04;40.66;102809.00;4963387;28;20243;-74
2023/04/04 09:13:10;;;;;;;3.83;1.52;;;;;;;9.88;40.69;102799.31;4966736;28;20376;-74
2023/04/04 09:15:42;;;;;;;3.53;1.42;;;;;;;9.95;40.89;102795.41;4963385;28;20220;-74
2023/04/04 09:18:07;;;;;;;3.92;1.65;;;;;;;10.10;42.04;102805.91;4989011;28;20019;-75
2023/04/04 09:20:41;;;;;;;4.25;2.35;;;;;;;10.19;42.09;102806.53;4990811;28;20022;-74
2023/04/04 09:23:11;;;;;;;3.50;1.63;;;;;;;10.37;42.17;102805.00;4988514;28;20111;-72
2023/04/04 09:25:43;;;;;;;3.20;1.77;;;;;;;10.33;40.63;102804.81;4987532;28;20108;-75
2023/04/04 09:28:08;;;;;;;2.38;1.75;;;;;;;10.51;43.12;102804.22;4985232;28;20041;-73
2023/04/04 09:30:37;;;;;;;2.42;1.40;;;;;;;10.45;41.28;102798.63;4988628;28;20475;-73
2023/04/04 09:33:07;;;;;;;2.83;1.90;;;;;;;10.41;41.25;102796.63;4986657;28;20077;-73
2023/04/04 09:35:36;;;;;;;3.42;1.92;;;;;;;10.13;40.96;102805.22;4967684;28;20590;-75
2023/04/04 09:38:02;;;;;;;3.60;1.70;;;;;;;10.25;40.84;102797.34;4984020;28;20547;-75
2023/04/04 09:40:28;;;;;;;3.33;1.65;;;;;;;9.39;39.05;102808.16;4989154;28;20090;-74
2023/04/04 09:42:55;;;;;;;4.55;1.45;;;;;;;9.41;40.46;102800.50;4968964;28;20437;-75
2023/04/04 09:45:25;;;;;;;3.08;1.70;;;;;;;8.82;39.84;102803.41;4966309;28;20069;-73
2023/04/04 09:47:50;;;;;;;2.85;1.50;;;;;;;8.48;41.45;102801.88;4986539;28;20778;-75
2023/04/04 09:50:22;;;;;;;2.72;1.50;;;;;;;8.16;41.56;102803.00;4989109;28;20022;-75
2023/04/04 09:52:48;;;;;;;3.40;1.63;;;;;;;8.37;43.18;102798.50;4986156;28;20034;-74
2023/04/04 09:55:13;;;;;;;3.08;1.60;;;;;;;8.56;42.50;102798.97;4976342;28;20027;-74
2023/04/04 09:57:40;;;;;;;2.17;1.27;;;;;;;8.44;43.43;102793.81;4954115;28;20361;-73
2023/04/04 10:00:08;;;;;;;3.78;1.92;;;;;;;8.62;42.91;102789.97;4957181;28;20561;-75
2023/04/04 10:02:36;;;;;;;4.15;1.88;;;;;;;8.71;42.88;102778.47;4957064;28;20030;-74
2023/04/04 10:05:07;;;;;;;3.85;1.98;;;;;;;8.46;43.03;102779.28;4961958;28;20078;-74
2023/04/04 10:07:38;;;;;;;4.35;1.73;;;;;;;8.71;44.38;102775.91;4972820;28;20395;-73
2023/04/04 10:10:08;;;;;;;3.15;1.70;;;;;;;8.82;42.56;102781.81;4962749;28;20023;-76
2023/04/04 10:12:33;;;;;;;5.05;1.98;;;;;;;9.00;42.27;102784.81;4971447;28;20341;-76
2023/04/04 10:15:00;;;;;;;4.60;1.85;;;;;;;8.76;43.96;102777.16;4951472;28;20057;-75
2023/04/04 10:17:30;;;;;;;6.18;1.80;;;;;;;8.82;43.04;102780.16;4977588;28;20027;-75
2023/04/04 10:20:03;;;;;;;4.57;2.20;;;;;;;9.03;43.51;102784.13;4964706;28;20565;-73
2023/04/04 10:22:30;;;;;;;3.25;1.90;;;;;;;9.31;44.77;102766.25;4969325;28;20033;-75
2023/04/04 10:24:57;;;;;;;3.17;1.48;;;;;;;9.28;43.08;102773.81;4952646;28;20118;-75
2023/04/04 10:27:23;;;;;;;5.20;1.90;;;;;;;9.15;44.25;102773.72;4957159;28;20381;-75
2023/04/04 10:29:48;;;;;;;3.50;1.77;;;;;;;9.42;44.41;102766.06;4951791;28;20026;-75
2023/04/04 10:32:32;;;;;;;4.32;1.88;;;;;;;9.59;43.44;102772.38;4956065;28;20543;-75
2023/04/04 10:35:11;;;;;;;2.45;1.70;;;;;;;9.36;40.59;102767.44;4963204;28;20027;-75
2023/04/04 10:37:42;;;;;;;4.40;2.13;;;;;;;9.57;42.36;102764.50;4973999;28;20435;-75
2023/04/04 10:40:15;;;;;;;3.40;1.52;;;;;;;9.82;43.39;102773.91;4972461;28;20027;-75
2023/04/04 10:42:44;;;;;;;3.75;2.00;;;;;;;10.00;43.14;102765.53;4973230;28;20131;-75
2023/04/04 10:45:13;;;;;;;4.95;1.85;;;;;;;10.11;42.60;102771.41;4975309;28;20171;-74
2023/04/04 10:47:40;;;;;;;3.20;1.55;;;;;;;10.23;42.64;102765.25;4967391;28;20026;-75
2023/04/04 10:50:09;;;;;;;3.17;1.55;;;;;;;10.45;43.83;102751.97;4972375;28;20041;-76
2023/04/04 10:52:36;;;;;;;3.10;1.63;;;;;;;10.64;41.94;102747.97;4959416;28;20110;-72
2023/04/04 10:55:05;;;;;;;3.40;1.67;;;;;;;10.69;42.55;102749.16;4964434;28;20423;-75
2023/04/04 10:57:32;;;;;;;3.83;1.90;;;;;;;10.68;42.32;102749.97;4972685;28;20026;-76
2023/04/04 11:00:01;;;;;;;3.60;1.60;;;;;;;10.56;40.44;102744.88;4986537;28;20034;-72
2023/04/04 11:02:57;;;;;;;4.60;1.95;;;;;;;10.43;42.33;102744.09;4984312;28;20041;-73
2023/04/04 11:05:31;;;;;;;4.07;1.98;;;;;;;10.05;40.33;102740.88;4985112;28;20027;-72
2023/04/04 11:08:02;;;;;;;4.15;1.70;;;;;;;9.99;42.43;102740.44;4985026;28;20030;-76
2023/04/04 11:10:34;;;;;;;2.88;1.58;;;;;;;10.01;40.87;102737.94;4973375;28;20027;-73
2023/04/04 11:13:07;;;;;;;4.25;1.70;;;;;;;9.84;39.85;102741.25;4951559;28;20035;-73
2023/04/04 11:15:55;;;;;;;1.88;1.67;;;;;;;9.95;41.23;102735.84;4978712;28;20398;-73
2023/04/04 11:18:42;;;;;;;3.70;1.70;;;;;;;10.13;41.88;102728.38;4967524;28;20058;-73